Time;durP1;ratioP1;P1;durP2;ratioP2;P2;SDS_P1;SDS_P2;PMS_P1;PMS_P2;Temp;Humidity;BMP_temperature;BMP_pressure;BME280_temperature;BME280_humidity;BME280_pressure;Samples;Min_cycle;Max_cycle;Signal;HPM_P1;HPM_P2
2021/11/14 06:24:45;;;;;;;;;;;21.80;99.90;;;;;;5091635;28;20386;-62
2021/11/14 07:59:53;;;;;;;;;;;22.10;97.80;;;;;;5091529;27;19919;-60
2021/11/14 08:02:18;;;;;;;;;;;22.00;98.40;;;;;;5090737;28;19995;-67
2021/11/14 08:04:44;;;;;;;;;;;22.00;98.70;;;;;;5091518;28;19915;-59
2021/11/14 08:07:09;;;;;;;;;;;22.10;98.70;;;;;;5091243;28;19908;-58
2021/11/14 08:09:35;;;;;;;;;;;22.10;98.70;;;;;;5091177;28;20002;-66
2021/11/14 08:12:00;;;;;;;;;;;22.20;98.70;;;;;;5091223;28;20257;-66
2021/11/14 08:14:26;;;;;;;;;;;22.30;98.60;;;;;;5090962;28;20050;-66
2021/11/14 08:16:52;;;;;;;;;;;22.30;98.60;;;;;;5090539;28;19908;-65
2021/11/14 08:19:17;;;;;;;;;;;22.40;98.50;;;;;;5091113;28;20336;-65
2021/11/14 08:21:43;;;;;;;;;;;22.40;98.40;;;;;;5091143;28;20454;-65
2021/11/14 08:24:08;;;;;;;;;;;22.50;98.30;;;;;;5090989;28;20344;-65
2021/11/14 08:26:34;;;;;;;;;;;22.50;98.20;;;;;;5089541;28;19999;-66
2021/11/14 08:28:59;;;;;;;;;;;22.50;98.10;;;;;;5090746;28;20389;-66
2021/11/14 08:31:25;;;;;;;;;;;22.50;98.10;;;;;;5089109;28;19912;-64
2021/11/14 08:33:51;;;;;;;;;;;22.50;98.00;;;;;;5090779;28;19915;-59
2021/11/14 08:36:16;;;;;;;;;;;22.50;97.90;;;;;;5090661;28;19909;-60
2021/11/14 08:38:42;;;;;;;;;;;22.60;97.90;;;;;;5090488;28;19967;-60
2021/11/14 08:41:08;;;;;;;;;;;22.50;97.80;;;;;;5090648;28;19948;-59
2021/11/14 08:43:36;;;;;;;;;;;22.50;97.80;;;;;;5089285;28;19916;-59
2021/11/14 08:46:01;;;;;;;;;;;22.50;97.80;;;;;;5090010;28;19908;-58
2021/11/14 08:48:27;;;;;;;;;;;22.60;97.80;;;;;;5090278;28;19909;-59
2021/11/14 08:50:52;;;;;;;;;;;22.50;97.80;;;;;;5090470;28;20006;-58
2021/11/14 08:53:18;;;;;;;;;;;22.60;97.70;;;;;;5090463;28;19908;-58
2021/11/14 08:55:43;;;;;;;;;;;22.60;97.70;;;;;;5090305;28;19908;-58
2021/11/14 08:58:09;;;;;;;;;;;22.60;97.70;;;;;;5096039;28;19927;-58
2021/11/14 09:00:34;;;;;;;;;;;22.60;97.60;;;;;;5110174;28;19915;-58
2021/11/14 09:03:00;;;;;;;;;;;22.60;97.60;;;;;;5110606;28;19961;-58
2021/11/14 09:05:27;;;;;;;;;;;22.60;97.50;;;;;;5110508;28;19962;-58
2021/11/14 09:07:53;;;;;;;;;;;22.60;97.50;;;;;;5110433;28;20314;-58
2021/11/14 09:10:20;;;;;;;;;;;22.70;97.50;;;;;;5102099;28;19930;-59
2021/11/14 09:12:45;;;;;;;;;;;22.60;97.50;;;;;;5096667;28;19964;-59
2021/11/14 09:15:11;;;;;;;;;;;22.70;97.50;;;;;;5096365;28;19908;-59
2021/11/14 09:17:37;;;;;;;;;;;22.60;97.40;;;;;;5096652;28;20379;-58
2021/11/14 09:20:04;;;;;;;;;;;22.70;97.50;;;;;;5096607;28;19912;-58
2021/11/14 09:22:29;;;;;;;;;;;22.70;97.40;;;;;;5096912;28;19916;-58
2021/11/14 09:24:55;;;;;;;;;;;22.70;97.40;;;;;;5096627;28;19913;-58
2021/11/14 09:27:20;;;;;;;;;;;22.70;97.40;;;;;;5096521;28;20007;-58
2021/11/14 09:29:46;;;;;;;;;;;22.70;97.40;;;;;;5095972;28;20387;-58
2021/11/14 09:32:11;;;;;;;;;;;22.70;97.40;;;;;;5096304;28;20360;-58
2021/11/14 09:34:37;;;;;;;;;;;22.70;97.40;;;;;;5096410;28;20034;-58
2021/11/14 09:37:02;;;;;;;;;;;22.70;97.30;;;;;;5096337;28;19909;-58
2021/11/14 09:39:28;;;;;;;;;;;22.70;97.30;;;;;;5096144;28;19969;-58
2021/11/14 09:41:54;;;;;;;;;;;22.70;97.60;;;;;;5095742;28;20372;-58
2021/11/14 09:44:20;;;;;;;;;;;22.70;97.30;;;;;;5096306;28;19914;-58
2021/11/14 09:46:50;;;;;;;;;;;22.70;97.30;;;;;;5096149;28;19912;-59
2021/11/14 09:49:15;;;;;;;;;;;22.70;97.30;;;;;;5095974;28;19912;-59
2021/11/14 09:51:41;;;;;;;;;;;22.70;97.30;;;;;;5095977;28;19952;-58
2021/11/14 09:54:08;;;;;;;;;;;22.70;97.30;;;;;;5095985;28;20040;-58
2021/11/14 09:56:34;;;;;;;;;;;22.70;97.30;;;;;;5095446;28;19908;-59
2021/11/14 09:58:59;;;;;;;;;;;22.70;97.30;;;;;;5095480;28;19927;-58
2021/11/14 10:01:25;;;;;;;;;;;22.70;97.20;;;;;;5096014;28;19912;-59
2021/11/14 10:03:50;;;;;;;;;;;22.70;97.20;;;;;;5095842;28;19915;-58
2021/11/14 10:06:19;;;;;;;;;;;22.70;97.20;;;;;;5095901;28;19908;-58
2021/11/14 10:08:45;;;;;;;;;;;22.70;97.20;;;;;;5077587;28;19919;-58
2021/11/14 10:11:11;;;;;;;;;;;22.70;97.20;;;;;;5095236;28;20360;-58
2021/11/14 10:13:39;;;;;;;;;;;22.80;97.20;;;;;;5095736;28;19908;-58
2021/11/14 10:16:13;;;;;;;;;;;22.70;97.20;;;;;;5095675;28;19918;-58
2021/11/14 10:18:40;;;;;;;;;;;22.70;97.20;;;;;;5095466;28;19923;-58
2021/11/14 10:21:05;;;;;;;;;;;22.70;97.20;;;;;;5094846;28;19912;-57
2021/11/14 10:23:32;;;;;;;;;;;22.70;97.20;;;;;;5094894;28;20430;-59
2021/11/14 10:26:02;;;;;;;;;;;22.70;97.20;;;;;;5095121;28;19908;-59
2021/11/14 10:28:28;;;;;;;;;;;22.70;97.20;;;;;;5095398;28;20375;-59
2021/11/14 10:30:53;;;;;;;;;;;22.70;97.20;;;;;;5095379;28;20371;-59
2021/11/14 10:33:19;;;;;;;;;;;22.70;97.20;;;;;;5095418;28;20348;-58
2021/11/14 10:35:46;;;;;;;;;;;22.70;97.20;;;;;;5095152;28;20375;-58
2021/11/14 10:38:16;;;;;;;;;;;22.70;97.20;;;;;;5095097;28;19916;-59
2021/11/14 10:40:43;;;;;;;;;;;22.70;97.20;;;;;;5094609;28;19912;-59
2021/11/14 10:43:09;;;;;;;;;;;22.70;97.20;;;;;;5095166;28;19915;-58
2021/11/14 10:45:36;;;;;;;;;;;22.70;97.20;;;;;;5094946;28;19912;-59
2021/11/14 10:48:04;;;;;;;;;;;22.70;97.20;;;;;;5094868;28;19908;-58
2021/11/14 10:50:34;;;;;;;;;;;22.70;97.20;;;;;;5094760;28;19909;-59
2021/11/14 10:53:01;;;;;;;;;;;22.70;97.20;;;;;;5094813;28;20341;-59
2021/11/14 10:55:30;;;;;;;;;;;22.70;97.20;;;;;;5094265;28;20388;-59
2021/11/14 10:57:55;;;;;;;;;;;22.70;97.20;;;;;;5094753;28;19924;-59
2021/11/14 11:00:22;;;;;;;;;;;22.70;97.20;;;;;;5094682;28;19961;-59
2021/11/14 11:02:48;;;;;;;;;;;22.70;97.20;;;;;;5094519;28;19966;-59
2021/11/14 11:05:19;;;;;;;;;;;22.60;97.20;;;;;;5094551;28;20368;-59
2021/11/14 11:07:54;;;;;;;;;;;22.60;97.20;;;;;;5094593;28;19915;-59
2021/11/14 11:10:22;;;;;;;;;;;22.60;97.20;;;;;;5094057;28;19961;-59
2021/11/14 11:12:47;;;;;;;;;;;22.60;97.20;;;;;;5094429;28;20328;-59
2021/11/14 11:15:13;;;;;;;;;;;22.60;97.20;;;;;;5094329;28;19946;-59
2021/11/14 11:17:47;;;;;;;;;;;22.60;97.20;;;;;;5094323;28;19947;-59
2021/11/14 11:20:14;;;;;;;;;;;22.60;97.20;;;;;;5094650;28;19990;-59
2021/11/14 11:22:52;;;;;;;;;;;22.60;97.20;;;;;;5094493;28;19943;-59
2021/11/14 11:25:28;;;;;;;;;;;22.60;97.20;;;;;;5093940;28;19994;-58
2021/11/14 11:27:54;;;;;;;;;;;22.60;97.20;;;;;;5094324;28;19908;-58
2021/11/14 11:30:49;;;;;;;;;;;22.60;97.20;;;;;;5094170;28;19919;-58
2021/11/14 11:33:16;;;;;;;;;;;22.60;97.20;;;;;;5080327;28;19969;-58
2021/11/14 11:35:41;;;;;;;;;;;22.60;97.20;;;;;;5094143;28;19926;-58
2021/11/14 11:38:07;;;;;;;;;;;22.60;97.20;;;;;;5093627;28;19924;-58
2021/11/14 11:40:33;;;;;;;;;;;22.60;97.20;;;;;;5094090;28;20356;-57
2021/11/14 11:42:58;;;;;;;;;;;22.60;97.20;;;;;;5093992;28;19976;-58
2021/11/14 11:45:28;;;;;;;;;;;22.60;97.20;;;;;;5093953;28;20037;-58
2021/11/14 11:47:55;;;;;;;;;;;22.70;97.20;;;;;;5093998;28;20368;-59
2021/11/14 11:50:24;;;;;;;;;;;22.70;97.20;;;;;;5093892;28;19977;-58
2021/11/14 11:52:50;;;;;;;;;;;22.70;97.20;;;;;;5093547;28;19909;-58
2021/11/14 11:55:41;;;;;;;;;;;22.70;97.20;;;;;;5093913;28;20388;-58
2021/11/14 11:58:08;;;;;;;;;;;22.70;97.20;;;;;;5090410;28;19920;-58
2021/11/14 12:00:34;;;;;;;;;;;22.70;97.10;;;;;;5093793;28;19916;-58
2021/11/14 12:03:19;;;;;;;;;;;22.70;97.10;;;;;;5093881;28;19908;-58
2021/11/14 12:05:47;;;;;;;;;;;22.70;97.10;;;;;;5093548;28;20541;-58
2021/11/14 12:08:13;;;;;;;;;;;22.70;97.10;;;;;;5093277;28;20368;-58
2021/11/14 12:10:38;;;;;;;;;;;22.70;97.10;;;;;;5093813;28;19908;-58
2021/11/14 12:13:04;;;;;;;;;;;22.70;97.10;;;;;;5093656;28;19916;-58
2021/11/14 12:15:34;;;;;;;;;;;22.70;97.10;;;;;;5093785;28;19908;-58
2021/11/14 12:18:04;;;;;;;;;;;22.70;97.10;;;;;;5093561;28;19977;-58
2021/11/14 12:20:31;;;;;;;;;;;22.70;97.10;;;;;;5093609;28;19915;-58
2021/11/14 12:22:59;;;;;;;;;;;22.70;97.10;;;;;;5093264;28;20374;-58
2021/11/14 12:25:24;;;;;;;;;;;22.70;97.10;;;;;;5093765;28;19948;-58
2021/11/14 12:28:16;;;;;;;;;;;22.70;97.10;;;;;;5093681;28;19908;-58
2021/11/14 12:30:44;;;;;;;;;;;22.70;97.10;;;;;;5090261;28;19916;-58
2021/11/14 12:33:19;;;;;;;;;;;22.70;97.10;;;;;;5093651;28;19909;-58
2021/11/14 12:35:47;;;;;;;;;;;22.70;97.10;;;;;;5093711;28;19908;-58
2021/11/14 12:38:19;;;;;;;;;;;22.70;97.10;;;;;;5092970;28;20345;-58
2021/11/14 12:40:47;;;;;;;;;;;22.70;97.10;;;;;;5093625;28;20296;-59
2021/11/14 12:43:16;;;;;;;;;;;22.70;97.10;;;;;;5093448;28;19908;-58
2021/11/14 12:45:46;;;;;;;;;;;22.80;97.10;;;;;;5095581;28;19920;-58
2021/11/14 12:48:12;;;;;;;;;;;22.80;97.10;;;;;;5097263;28;19991;-58
2021/11/14 12:50:38;;;;;;;;;;;22.80;97.10;;;;;;5096667;28;19958;-57
2021/11/14 12:53:06;;;;;;;;;;;22.70;97.10;;;;;;5097158;28;19915;-58
2021/11/14 12:55:32;;;;;;;;;;;22.80;97.10;;;;;;5097103;28;19955;-58
2021/11/14 12:58:02;;;;;;;;;;;22.80;97.10;;;;;;5096973;28;19963;-58
2021/11/14 13:00:30;;;;;;;;;;;22.80;97.10;;;;;;5096957;28;20288;-58
2021/11/14 13:02:55;;;;;;;;;;;22.80;97.10;;;;;;5096940;28;20097;-58
2021/11/14 13:05:21;;;;;;;;;;;22.80;97.10;;;;;;5096501;28;20014;-58
2021/11/14 13:08:13;;;;;;;;;;;22.80;97.10;;;;;;5097057;28;19916;-59
2021/11/14 13:10:45;;;;;;;;;;;22.80;97.10;;;;;;5071575;28;19913;-58
2021/11/14 13:13:10;;;;;;;;;;;22.80;97.10;;;;;;5073663;28;20026;-58
2021/11/14 13:15:36;;;;;;;;;;;22.80;97.10;;;;;;5073738;28;20000;-58
2021/11/14 13:18:01;;;;;;;;;;;22.80;97.10;;;;;;5073565;28;20285;-58
2021/11/14 13:20:27;;;;;;;;;;;22.80;97.10;;;;;;5072993;28;19916;-58
2021/11/14 13:22:54;;;;;;;;;;;22.80;97.10;;;;;;5073494;28;19917;-58
2021/11/14 13:25:23;;;;;;;;;;;22.80;97.10;;;;;;5073618;28;19908;-58
2021/11/14 13:27:51;;;;;;;;;;;22.80;97.10;;;;;;5073597;28;20419;-58
2021/11/14 13:30:17;;;;;;;;;;;22.80;97.10;;;;;;5073698;28;19916;-58
2021/11/14 13:32:42;;;;;;;;;;;22.80;97.10;;;;;;5073138;28;20282;-58
2021/11/14 13:35:08;;;;;;;;;;;22.80;97.10;;;;;;5072775;28;19909;-58
2021/11/14 13:37:35;;;;;;;;;;;22.80;97.10;;;;;;5077918;28;19912;-58
2021/11/14 13:40:06;;;;;;;;;;;22.80;97.10;;;;;;5089338;28;19922;-59
2021/11/14 13:42:35;;;;;;;;;;;22.80;97.10;;;;;;5094108;28;19941;-59
2021/11/14 13:45:03;;;;;;;;;;;22.80;97.10;;;;;;5095714;28;19909;-59
2021/11/14 13:47:30;;;;;;;;;;;22.80;97.10;;;;;;5095590;28;19914;-59
2021/11/14 13:49:56;;;;;;;;;;;22.80;97.10;;;;;;5095776;28;19947;-59
2021/11/14 13:52:22;;;;;;;;;;;22.80;97.10;;;;;;5096093;28;19908;-59
2021/11/14 13:54:57;;;;;;;;;;;22.80;97.10;;;;;;5096035;28;19908;-58
2021/11/14 13:57:25;;;;;;;;;;;22.80;97.10;;;;;;5095982;28;19954;-59
2021/11/14 13:59:50;;;;;;;;;;;22.80;97.10;;;;;;5095897;28;20455;-59
2021/11/14 14:02:16;;;;;;;;;;;22.80;97.10;;;;;;5095927;28;19958;-58
2021/11/14 14:05:08;;;;;;;;;;;22.80;97.10;;;;;;5095433;28;19943;-59
2021/11/14 14:07:34;;;;;;;;;;;22.80;97.10;;;;;;5092700;28;19918;-58
2021/11/14 14:10:01;;;;;;;;;;;22.80;97.10;;;;;;5095727;28;19974;-58
2021/11/14 14:12:28;;;;;;;;;;;22.90;97.10;;;;;;5095728;28;19915;-58
2021/11/14 14:14:55;;;;;;;;;;;22.80;97.10;;;;;;5095542;28;19999;-60
2021/11/14 14:17:23;;;;;;;;;;;22.80;97.10;;;;;;5095643;28;19955;-59
2021/11/14 14:19:49;;;;;;;;;;;22.80;97.10;;;;;;5095520;28;19916;-59
2021/11/14 14:22:14;;;;;;;;;;;22.90;97.10;;;;;;5095437;28;20098;-59
2021/11/14 14:24:47;;;;;;;;;;;22.90;97.10;;;;;;5095474;28;19998;-59
2021/11/14 14:27:20;;;;;;;;;;;22.90;97.10;;;;;;5095370;28;19908;-59
2021/11/14 14:29:56;;;;;;;;;;;22.90;97.10;;;;;;5095304;28;20368;-59
2021/11/14 14:32:21;;;;;;;;;;;22.90;97.10;;;;;;5094796;28;20280;-60
2021/11/14 14:34:48;;;;;;;;;;;22.90;97.10;;;;;;5095274;28;20365;-59
2021/11/14 14:37:13;;;;;;;;;;;22.90;97.10;;;;;;5095183;28;20391;-58
2021/11/14 14:39:41;;;;;;;;;;;22.90;97.10;;;;;;5094901;28;19917;-59
2021/11/14 14:42:07;;;;;;;;;;;22.90;97.10;;;;;;5095240;28;20374;-59
2021/11/14 14:44:33;;;;;;;;;;;22.90;97.10;;;;;;5095317;28;19908;-59
2021/11/14 14:46:58;;;;;;;;;;;22.90;97.10;;;;;;5094706;28;19947;-59
2021/11/14 14:49:27;;;;;;;;;;;22.90;97.10;;;;;;5094986;28;19915;-58
2021/11/14 14:51:55;;;;;;;;;;;22.90;97.10;;;;;;5094814;28;19912;-58
2021/11/14 14:54:22;;;;;;;;;;;22.90;97.10;;;;;;5094821;28;19995;-58
2021/11/14 14:56:49;;;;;;;;;;;22.90;97.20;;;;;;5094732;28;19908;-60
2021/11/14 14:59:19;;;;;;;;;;;22.90;97.10;;;;;;5094452;28;19974;-59
2021/11/14 15:01:48;;;;;;;;;;;22.90;97.20;;;;;;5094311;28;19908;-59
2021/11/14 15:04:14;;;;;;;;;;;22.90;97.20;;;;;;5094478;28;19914;-59
2021/11/14 15:06:40;;;;;;;;;;;22.90;97.20;;;;;;5094766;28;19994;-60
2021/11/14 15:09:16;;;;;;;;;;;23.00;97.30;;;;;;5094073;28;20379;-59
2021/11/14 15:11:44;;;;;;;;;;;22.90;97.30;;;;;;5094560;28;19909;-60
2021/11/14 15:14:09;;;;;;;;;;;23.00;97.30;;;;;;5094478;28;19947;-59
2021/11/14 15:16:35;;;;;;;;;;;23.00;97.30;;;;;;5094059;28;19959;-58
2021/11/14 15:19:00;;;;;;;;;;;23.00;97.30;;;;;;5094280;28;19963;-57
2021/11/14 15:21:26;;;;;;;;;;;23.00;97.30;;;;;;5094183;28;19908;-58
2021/11/14 15:23:51;;;;;;;;;;;23.00;97.30;;;;;;5094539;28;20313;-58
2021/11/14 15:26:17;;;;;;;;;;;23.00;97.30;;;;;;5094437;28;20360;-57
2021/11/14 15:28:42;;;;;;;;;;;23.00;97.20;;;;;;5094333;28;19908;-58
2021/11/14 15:31:09;;;;;;;;;;;23.00;97.20;;;;;;5093756;28;19917;-58
2021/11/14 15:33:37;;;;;;;;;;;23.00;97.20;;;;;;5094183;28;20272;-58
2021/11/14 15:36:03;;;;;;;;;;;23.00;97.20;;;;;;5094016;28;19959;-58
2021/11/14 15:38:29;;;;;;;;;;;23.00;97.20;;;;;;5094106;28;19951;-58
2021/11/14 15:40:55;;;;;;;;;;;23.00;97.20;;;;;;5093957;28;20016;-58
2021/11/14 15:43:21;;;;;;;;;;;23.00;97.20;;;;;;5093970;28;20387;-58
2021/11/14 15:45:47;;;;;;;;;;;23.00;97.20;;;;;;5093540;28;19962;-58
2021/11/14 15:48:13;;;;;;;;;;;23.00;97.20;;;;;;5094060;28;19908;-58
2021/11/14 15:50:40;;;;;;;;;;;23.00;97.20;;;;;;5093937;28;20364;-57
2021/11/14 15:53:06;;;;;;;;;;;23.00;97.20;;;;;;5093966;28;19919;-58
2021/11/14 15:55:33;;;;;;;;;;;22.90;97.10;;;;;;5093790;28;19908;-58
2021/11/14 15:58:00;;;;;;;;;;;22.90;97.10;;;;;;5093627;28;19920;-58
2021/11/14 16:00:27;;;;;;;;;;;22.90;97.10;;;;;;5093510;28;19970;-58
2021/11/14 16:02:52;;;;;;;;;;;22.80;97.00;;;;;;5093939;28;19912;-58
2021/11/14 16:05:19;;;;;;;;;;;22.80;97.00;;;;;;5093711;28;19969;-58
2021/11/14 16:07:45;;;;;;;;;;;22.70;97.00;;;;;;5093839;28;19965;-57
2021/11/14 16:10:11;;;;;;;;;;;22.70;97.00;;;;;;5093777;28;19986;-58
2021/11/14 16:12:36;;;;;;;;;;;22.60;97.00;;;;;;5093659;28;19915;-59
2021/11/14 16:15:04;;;;;;;;;;;22.60;97.00;;;;;;5093306;28;19997;-58
2021/11/14 16:17:30;;;;;;;;;;;22.60;97.00;;;;;;5093607;28;19908;-58
2021/11/14 16:19:56;;;;;;;;;;;22.60;97.00;;;;;;5094536;28;19916;-59
2021/11/14 16:22:21;;;;;;;;;;;22.60;97.00;;;;;;5097522;28;20360;-59
2021/11/14 16:24:47;;;;;;;;;;;22.60;97.00;;;;;;5097810;28;20444;-59
2021/11/14 16:27:12;;;;;;;;;;;22.60;97.10;;;;;;5097831;28;19931;-58
2021/11/14 16:29:42;;;;;;;;;;;22.60;97.10;;;;;;5097100;28;19909;-59
2021/11/14 16:32:07;;;;;;;;;;;22.70;97.10;;;;;;5097461;28;20292;-57
2021/11/14 16:34:33;;;;;;;;;;;22.70;97.10;;;;;;5097408;28;19908;-61
2021/11/14 16:36:58;;;;;;;;;;;22.70;97.10;;;;;;5097540;28;19915;-59
2021/11/14 16:39:24;;;;;;;;;;;22.70;97.20;;;;;;5097749;28;19923;-61
2021/11/14 16:41:49;;;;;;;;;;;22.70;97.30;;;;;;5097272;28;20004;-61
2021/11/14 16:44:15;;;;;;;;;;;22.70;97.30;;;;;;5097031;28;20358;-61
2021/11/14 16:46:41;;;;;;;;;;;22.80;97.40;;;;;;5097127;28;19951;-59
2021/11/14 16:49:06;;;;;;;;;;;22.80;97.50;;;;;;5079153;28;19955;-59
2021/11/14 16:51:32;;;;;;;;;;;22.80;97.50;;;;;;5097492;28;20288;-59
2021/11/14 16:53:58;;;;;;;;;;;22.90;97.60;;;;;;5097041;28;20269;-60
2021/11/14 16:56:24;;;;;;;;;;;22.90;97.60;;;;;;5097471;28;19953;-59
2021/11/14 16:58:49;;;;;;;;;;;22.90;97.60;;;;;;5096252;28;19920;-59
2021/11/14 17:01:15;;;;;;;;;;;23.00;97.70;;;;;;5078840;28;19928;-59
2021/11/14 17:03:40;;;;;;;;;;;23.00;97.70;;;;;;5096932;28;20331;-58
2021/11/14 17:06:06;;;;;;;;;;;23.10;97.70;;;;;;5097053;28;19951;-58
2021/11/14 17:08:31;;;;;;;;;;;23.10;97.60;;;;;;5096880;28;19947;-61
2021/11/14 17:10:57;;;;;;;;;;;23.10;97.60;;;;;;5096850;28;19961;-61
2021/11/14 17:13:23;;;;;;;;;;;23.20;97.60;;;;;;5096200;28;20407;-61
2021/11/14 17:15:48;;;;;;;;;;;23.20;97.60;;;;;;5096732;28;19908;-61
2021/11/14 17:18:14;;;;;;;;;;;23.20;97.60;;;;;;5096556;28;19916;-60
2021/11/14 17:20:41;;;;;;;;;;;23.30;97.60;;;;;;5096603;28;19908;-60
2021/11/14 17:23:06;;;;;;;;;;;23.20;97.50;;;;;;5096467;28;19961;-59
2021/11/14 17:25:32;;;;;;;;;;;23.20;97.50;;;;;;5096731;28;20007;-59
2021/11/14 17:27:57;;;;;;;;;;;23.30;97.50;;;;;;5096051;28;19915;-59
2021/11/14 17:30:23;;;;;;;;;;;23.30;97.50;;;;;;5096103;28;19912;-59
2021/11/14 17:32:48;;;;;;;;;;;23.20;97.40;;;;;;5096258;28;19908;-60
2021/11/14 17:35:14;;;;;;;;;;;23.30;97.50;;;;;;5096382;28;19908;-59
2021/11/14 17:37:40;;;;;;;;;;;23.30;97.40;;;;;;5096482;28;19909;-59
2021/11/14 17:40:07;;;;;;;;;;;23.30;97.40;;;;;;5096118;28;19973;-60
2021/11/14 17:42:32;;;;;;;;;;;23.20;97.40;;;;;;5095617;28;20348;-60
2021/11/14 17:44:58;;;;;;;;;;;23.30;97.40;;;;;;5096324;28;19922;-60
2021/11/14 17:47:23;;;;;;;;;;;23.30;97.40;;;;;;5096086;28;19908;-59
2021/11/14 17:49:49;;;;;;;;;;;23.30;97.40;;;;;;5096127;28;19961;-59
2021/11/14 17:52:14;;;;;;;;;;;23.30;97.40;;;;;;5096038;28;19953;-59
2021/11/14 17:54:40;;;;;;;;;;;23.30;97.40;;;;;;5096007;28;19908;-59
2021/11/14 17:57:07;;;;;;;;;;;23.30;97.40;;;;;;5095441;28;20481;-58
2021/11/14 17:59:33;;;;;;;;;;;23.30;97.30;;;;;;5095696;28;20374;-58
2021/11/14 18:01:58;;;;;;;;;;;23.20;97.30;;;;;;5095780;28;19912;-58
2021/11/14 18:04:23;;;;;;;;;;;23.20;97.40;;;;;;5095677;28;19954;-59
2021/11/14 18:06:49;;;;;;;;;;;23.30;97.40;;;;;;5095743;28;19962;-58
2021/11/14 18:09:15;;;;;;;;;;;23.30;97.40;;;;;;5095650;28;19908;-59
2021/11/14 18:11:41;;;;;;;;;;;23.30;97.40;;;;;;5095298;28;19908;-58
2021/11/14 18:14:06;;;;;;;;;;;23.30;97.40;;;;;;5095633;28;20011;-58
2021/11/14 18:16:32;;;;;;;;;;;23.30;97.40;;;;;;5095581;28;19908;-58
2021/11/14 18:18:57;;;;;;;;;;;23.30;97.40;;;;;;5095279;28;19916;-58
2021/11/14 18:21:23;;;;;;;;;;;23.30;97.40;;;;;;5095458;28;19908;-58
2021/11/14 18:23:48;;;;;;;;;;;23.30;97.30;;;;;;5095474;28;20011;-58
2021/11/14 18:26:14;;;;;;;;;;;23.30;97.30;;;;;;5094816;28;19908;-58
2021/11/14 18:28:44;;;;;;;;;;;23.30;97.30;;;;;;5095356;28;19915;-58
2021/11/14 18:31:10;;;;;;;;;;;23.30;97.30;;;;;;5095211;28;19908;-58
2021/11/14 18:33:36;;;;;;;;;;;23.30;97.30;;;;;;5095278;28;19918;-58
2021/11/14 18:36:01;;;;;;;;;;;23.20;97.30;;;;;;5076849;28;20319;-58
2021/11/14 18:38:26;;;;;;;;;;;23.30;97.30;;;;;;5094686;28;19920;-58
2021/11/14 18:40:52;;;;;;;;;;;23.30;97.30;;;;;;5095186;28;19954;-59
2021/11/14 18:43:18;;;;;;;;;;;23.30;97.30;;;;;;5094122;28;19954;-58
2021/11/14 18:45:44;;;;;;;;;;;23.30;97.30;;;;;;5094811;28;19934;-59
2021/11/14 18:48:10;;;;;;;;;;;23.20;97.30;;;;;;5094919;28;19912;-59
2021/11/14 18:50:37;;;;;;;;;;;23.30;97.30;;;;;;5095099;28;19912;-59
2021/11/14 18:53:03;;;;;;;;;;;23.30;97.30;;;;;;5094455;28;19935;-58
2021/11/14 18:55:28;;;;;;;;;;;23.30;97.30;;;;;;5094735;28;19951;-59
2021/11/14 18:57:55;;;;;;;;;;;23.20;97.30;;;;;;5094353;28;19913;-59
2021/11/14 19:00:21;;;;;;;;;;;23.20;97.20;;;;;;5094776;28;19919;-59
2021/11/14 19:02:47;;;;;;;;;;;23.20;97.30;;;;;;5094556;28;19915;-61
2021/11/14 19:05:13;;;;;;;;;;;23.20;97.30;;;;;;5094460;28;19998;-60
2021/11/14 19:07:38;;;;;;;;;;;23.30;97.30;;;;;;5094334;28;19954;-59
2021/11/14 19:10:05;;;;;;;;;;;23.20;97.30;;;;;;5094570;28;19952;-60
2021/11/14 19:12:31;;;;;;;;;;;23.20;97.30;;;;;;5094423;28;20003;-59
2021/11/14 19:14:56;;;;;;;;;;;23.20;97.30;;;;;;5094431;28;19947;-58
2021/11/14 19:17:22;;;;;;;;;;;23.30;97.30;;;;;;5094408;28;20364;-58
2021/11/14 19:19:47;;;;;;;;;;;23.30;97.30;;;;;;5094337;28;19916;-58
2021/11/14 19:22:13;;;;;;;;;;;23.20;97.30;;;;;;5093929;28;19908;-62
2021/11/14 19:24:39;;;;;;;;;;;23.30;97.30;;;;;;5094221;28;20412;-59
2021/11/14 19:27:05;;;;;;;;;;;23.30;97.30;;;;;;5094259;28;20387;-59
2021/11/14 19:29:31;;;;;;;;;;;23.30;97.30;;;;;;5093988;28;19912;-59
2021/11/14 19:31:57;;;;;;;;;;;23.30;97.30;;;;;;5094388;28;19908;-59
2021/11/14 19:34:23;;;;;;;;;;;23.30;97.30;;;;;;5094159;28;19912;-60
2021/11/14 19:36:48;;;;;;;;;;;23.30;97.30;;;;;;5093733;28;19915;-60
2021/11/14 19:39:16;;;;;;;;;;;23.30;97.30;;;;;;5094016;28;19916;-60
2021/11/14 19:41:42;;;;;;;;;;;23.30;97.30;;;;;;5093829;28;19919;-60
2021/11/14 19:44:08;;;;;;;;;;;23.30;97.30;;;;;;5094058;28;19908;-59
2021/11/14 19:46:33;;;;;;;;;;;23.30;97.30;;;;;;5094024;28;19934;-61
2021/11/14 19:48:58;;;;;;;;;;;23.40;97.30;;;;;;5093987;28;19915;-60
2021/11/14 19:51:24;;;;;;;;;;;23.40;97.30;;;;;;5093464;28;19912;-59
2021/11/14 19:53:50;;;;;;;;;;;23.40;97.30;;;;;;5093671;28;20257;-59
2021/11/14 19:56:15;;;;;;;;;;;23.40;97.30;;;;;;5093835;28;19912;-59
2021/11/14 19:58:41;;;;;;;;;;;23.40;97.30;;;;;;5093644;28;19976;-58
2021/11/14 20:01:07;;;;;;;;;;;23.40;97.30;;;;;;5093957;28;20368;-59
2021/11/14 20:03:33;;;;;;;;;;;23.40;97.30;;;;;;5093825;28;19908;-58
2021/11/14 20:05:59;;;;;;;;;;;23.50;97.30;;;;;;5093475;28;19908;-59
2021/11/14 20:08:25;;;;;;;;;;;23.50;97.30;;;;;;5093766;28;19908;-58
2021/11/14 20:10:50;;;;;;;;;;;23.50;97.30;;;;;;5093659;28;19990;-50
2021/11/14 20:13:18;;;;;;;;;;;23.50;97.30;;;;;;5093803;28;19908;-58
2021/11/14 20:15:45;;;;;;;;;;;23.50;97.30;;;;;;5093768;28;19908;-58
2021/11/14 20:18:13;;;;;;;;;;;23.50;97.30;;;;;;5093732;28;19912;-58
2021/11/14 20:20:40;;;;;;;;;;;23.50;97.30;;;;;;5093205;28;20287;-58
2021/11/14 20:23:05;;;;;;;;;;;23.50;97.30;;;;;;5093801;28;19977;-58
2021/11/14 20:25:32;;;;;;;;;;;23.50;97.30;;;;;;5093519;28;20257;-58
2021/11/14 20:27:57;;;;;;;;;;;23.50;97.30;;;;;;5093872;28;20368;-58
2021/11/14 20:30:23;;;;;;;;;;;23.50;97.30;;;;;;5093594;28;19962;-58
2021/11/14 20:32:49;;;;;;;;;;;23.50;97.30;;;;;;5093622;28;19999;-58
2021/11/14 20:35:15;;;;;;;;;;;23.50;97.30;;;;;;5092980;28;19908;-59
2021/11/14 20:37:41;;;;;;;;;;;23.50;97.30;;;;;;5093572;28;20382;-59
2021/11/14 20:40:08;;;;;;;;;;;23.50;97.30;;;;;;5093303;28;19924;-58
2021/11/14 20:42:33;;;;;;;;;;;23.50;97.60;;;;;;5093383;28;19946;-58
2021/11/14 20:45:01;;;;;;;;;;;23.50;97.30;;;;;;5075267;28;19988;-58
2021/11/14 20:47:26;;;;;;;;;;;23.50;97.30;;;;;;5093504;28;19919;-58
2021/11/14 20:49:52;;;;;;;;;;;23.50;97.30;;;;;;5092885;28;20318;-56
2021/11/14 20:52:17;;;;;;;;;;;23.50;97.30;;;;;;5093596;28;19908;-56
2021/11/14 20:54:44;;;;;;;;;;;23.50;97.30;;;;;;5093210;28;19908;-56
2021/11/14 20:57:09;;;;;;;;;;;23.50;97.30;;;;;;5093393;28;19916;-57
2021/11/14 20:59:35;;;;;;;;;;;23.50;97.30;;;;;;5074931;28;19920;-58
2021/11/14 21:02:00;;;;;;;;;;;23.50;97.30;;;;;;5093249;28;19915;-58
2021/11/14 21:04:26;;;;;;;;;;;23.50;97.20;;;;;;5093065;28;19947;-57
2021/11/14 21:06:52;;;;;;;;;;;23.50;97.30;;;;;;5095506;28;20283;-56
2021/11/14 21:09:20;;;;;;;;;;;23.50;97.20;;;;;;5096882;28;20048;-56
2021/11/14 21:11:46;;;;;;;;;;;23.50;97.20;;;;;;5096817;28;20264;-56
2021/11/14 21:14:11;;;;;;;;;;;23.40;97.20;;;;;;5096682;28;19930;-57
2021/11/14 21:16:37;;;;;;;;;;;23.40;97.20;;;;;;5096754;28;19999;-56
2021/11/14 21:19:03;;;;;;;;;;;23.40;97.20;;;;;;5096262;28;19916;-63
2021/11/14 21:21:28;;;;;;;;;;;23.30;97.00;;;;;;5096605;28;20364;-60
2021/11/14 21:23:53;;;;;;;;;;;23.20;97.20;;;;;;5096518;28;20356;-58
2021/11/14 21:26:19;;;;;;;;;;;23.10;97.30;;;;;;5096594;28;19912;-61
2021/11/14 21:28:44;;;;;;;;;;;23.10;97.40;;;;;;5096684;28;19912;-65
2021/11/14 21:31:10;;;;;;;;;;;23.00;97.40;;;;;;5096540;28;20372;-65
2021/11/14 21:33:47;;;;;;;;;;;22.80;97.60;;;;;;5095893;28;19912;-64
2021/11/14 21:38:58;;;;;;;;;;;22.70;98.00;;;;;;5096405;28;19939;-64
2021/11/14 21:41:23;;;;;;;;;;;22.70;98.10;;;;;;5078309;28;19915;-64
2021/11/14 21:43:49;;;;;;;;;;;22.70;98.10;;;;;;5096230;28;19912;-64
2021/11/14 21:46:15;;;;;;;;;;;22.70;98.20;;;;;;5096212;28;19991;-64
2021/11/14 21:48:40;;;;;;;;;;;22.70;98.20;;;;;;5095775;28;20013;-64
2021/11/14 21:51:06;;;;;;;;;;;22.60;98.40;;;;;;5096103;28;20368;-64
2021/11/14 21:53:31;;;;;;;;;;;22.70;98.20;;;;;;5096008;28;20424;-64
2021/11/14 21:55:57;;;;;;;;;;;22.70;98.20;;;;;;5095987;28;19915;-64
2021/11/14 21:58:22;;;;;;;;;;;22.70;98.20;;;;;;5091806;28;19930;-64
2021/11/14 22:00:48;;;;;;;;;;;22.70;98.50;;;;;;5073076;28;19913;-64
2021/11/14 22:03:14;;;;;;;;;;;22.70;98.20;;;;;;5072354;28;19912;-64
2021/11/14 22:05:40;;;;;;;;;;;22.70;98.20;;;;;;5072821;28;19956;-64
2021/11/14 22:08:05;;;;;;;;;;;22.70;98.10;;;;;;5074125;28;19966;-64
2021/11/14 22:10:31;;;;;;;;;;;22.70;98.10;;;;;;5089057;28;19908;-64
2021/11/14 22:12:56;;;;;;;;;;;22.70;98.10;;;;;;5093601;28;19908;-64